Hlavní strana
METAR-TAF:

METAR-TAF

Letiště :

Marion Municipal Airport

Marion, Ohio, Spojené státy americké

zeměpisná šířka: 40-37-00N, zeměpisná délka: 083-04-06W, výška: 303 m

Aktuální stav počasí

Zpráva byla vytvořena před 53 minutami, v 20:53 UTC
Jižní vítr 6 kt
Teplota 7°C
Vlhkost vzduchu 76%
Tlak 1011 hPa
Viditelnost: 12.9 km
Oblačno až skoro zataženo ve výšce 1700 ft
Zataženo ve výšce 7000 ft

METAR: KMNN 242053Z AUTO 19006KT 8SM BKN017 OVC070 07/03 A2986 RMK AO2 SLP121 T00670028 56022

Čas: 16:46 (21:46 UTC)


TAF: chybějící

Stav a předpovědi počasí z více než 4 000 letišť (zprávy METAR a TAF).

Červené a žluté tečky na mapě představují dostupné meteorologické stanice.

Když kurzor umístíte na tečku, zobrazí se název stanice.

Pak kliknutím zobrazíte stav a předpověď počasí.

Chcete-li změnit mapu, kliknutím na zelené tlačítko se znaménkem +mapu přiblížíte, kliknutím na zelené tlačítko se znaménkem – mapu oddálíte a kliknutím na zelené šipky přejdete na sousední mapy.


METAR-TAF: